Time;durP1;ratioP1;P1;durP2;ratioP2;P2;SDS_P1;SDS_P2;PMS_P1;PMS_P2;Temp;Humidity;BMP_temperature;BMP_pressure;BME280_temperature;BME280_humidity;BME280_pressure;Samples;Min_cycle;Max_cycle;Signal;HPM_P1;HPM_P2
2023/05/28 00:02:05;;;;;;;7.93;3.10;;;;;;;;;;5011491;28;20121;-77
2023/05/28 00:04:31;;;;;;;6.72;3.45;;;;;;;;;;5042272;28;20547;-76
2023/05/28 00:06:56;;;;;;;7.70;3.80;;;;;;;;;;5027154;28;20124;-76
2023/05/28 00:09:22;;;;;;;6.35;3.50;;;;;;;;;;5012376;28;20119;-76
2023/05/28 00:11:47;;;;;;;6.53;3.13;;;;;;;;;;5028280;28;20037;-76
2023/05/28 00:14:13;;;;;;;6.05;3.20;;;;;;;;;;5046699;28;20067;-76
2023/05/28 00:16:40;;;;;;;6.68;3.20;;;;;;;;;;5028750;28;20048;-76
2023/05/28 00:19:06;;;;;;;8.38;3.38;;;;;;;;;;5007570;28;20076;-77
2023/05/28 00:21:33;;;;;;;7.20;3.60;;;;;;;;;;5046299;28;20559;-76
2023/05/28 00:23:58;;;;;;;7.55;3.65;;;;;;;;;;5029701;28;20033;-76
2023/05/28 00:26:25;;;;;;;6.75;3.30;;;;;;;;;;5011800;28;20036;-76
2023/05/28 00:28:51;;;;;;;8.83;3.73;;;;;;;;;;5029498;28;20049;-77
2023/05/28 00:31:16;;;;;;;6.53;3.10;;;;;;;;;;5045543;28;20455;-77
2023/05/28 00:33:43;;;;;;;7.80;3.95;;;;;;;;;;5046643;28;20048;-76
2023/05/28 00:36:09;;;;;;;6.68;3.40;;;;;;;;;;5028699;28;20032;-76
2023/05/28 00:38:34;;;;;;;7.82;3.75;;;;;;;;;;5012510;28;20041;-76
2023/05/28 00:41:00;;;;;;;8.85;3.50;;;;;;;;;;5028351;28;20672;-76
2023/05/28 00:43:25;;;;;;;9.45;3.65;;;;;;;;;;5029032;28;20041;-76
2023/05/28 00:45:51;;;;;;;7.35;3.20;;;;;;;;;;5027871;28;20583;-78
2023/05/28 00:48:16;;;;;;;7.70;3.33;;;;;;;;;;5046926;28;20029;-76
2023/05/28 00:50:42;;;;;;;8.40;3.75;;;;;;;;;;5011437;28;20029;-76
2023/05/28 00:53:08;;;;;;;9.05;3.30;;;;;;;;;;5028892;28;20045;-77
2023/05/28 00:55:34;;;;;;;6.78;3.25;;;;;;;;;;5028599;28;20035;-77
2023/05/28 00:58:05;;;;;;;6.45;3.58;;;;;;;;;;5012613;28;20064;-77
2023/05/28 01:00:31;;;;;;;7.25;3.33;;;;;;;;;;5028128;28;20037;-77
2023/05/28 01:02:57;;;;;;;7.72;3.58;;;;;;;;;;5028243;28;20087;-76
2023/05/28 01:05:23;;;;;;;9.77;3.53;;;;;;;;;;5011303;28;20037;-77
2023/05/28 01:07:48;;;;;;;7.97;3.35;;;;;;;;;;5028060;28;20041;-77
2023/05/28 01:10:14;;;;;;;8.05;3.55;;;;;;;;;;5046101;28;20491;-77
2023/05/28 01:12:40;;;;;;;7.63;3.35;;;;;;;;;;5011369;28;20025;-76
2023/05/28 01:15:06;;;;;;;8.43;3.72;;;;;;;;;;5028133;28;20454;-76
2023/05/28 01:17:32;;;;;;;7.93;3.75;;;;;;;;;;5011222;28;20036;-76
2023/05/28 01:19:57;;;;;;;8.40;3.55;;;;;;;;;;5007637;28;20051;-76
2023/05/28 01:22:28;;;;;;;6.18;3.10;;;;;;;;;;5026180;28;20033;-77
2023/05/28 01:24:54;;;;;;;9.80;3.72;;;;;;;;;;5017616;28;20034;-76
2023/05/28 01:27:19;;;;;;;8.02;3.45;;;;;;;;;;5025067;28;20037;-76
2023/05/28 01:29:45;;;;;;;8.05;3.92;;;;;;;;;;5022991;28;20060;-76
2023/05/28 01:32:10;;;;;;;8.20;3.50;;;;;;;;;;5025840;28;20029;-77
2023/05/28 01:34:35;;;;;;;8.23;4.10;;;;;;;;;;5025992;28;20491;-76
2023/05/28 01:37:04;;;;;;;8.95;3.40;;;;;;;;;;4999047;28;20033;-76
2023/05/28 01:39:39;;;;;;;5.90;3.30;;;;;;;;;;5008177;28;20510;-76
2023/05/28 01:42:06;;;;;;;9.00;3.92;;;;;;;;;;5007250;28;20042;-76
2023/05/28 01:44:32;;;;;;;10.48;3.92;;;;;;;;;;5007735;28;20045;-76
2023/05/28 01:46:58;;;;;;;7.18;3.70;;;;;;;;;;5006225;28;20033;-76
2023/05/28 01:49:23;;;;;;;9.95;3.97;;;;;;;;;;5023945;28;20052;-76
2023/05/28 01:51:51;;;;;;;9.10;3.75;;;;;;;;;;5024084;28;20041;-76
2023/05/28 01:54:16;;;;;;;8.25;4.07;;;;;;;;;;5023950;28;20025;-76
2023/05/28 01:56:41;;;;;;;6.95;3.58;;;;;;;;;;5023866;28;20044;-76
2023/05/28 01:59:07;;;;;;;8.32;3.72;;;;;;;;;;5025526;28;20370;-76
2023/05/28 02:04:39;;;;;;;8.85;3.67;;;;;;;;;;5021938;28;20044;-76
2023/05/28 02:07:05;;;;;;;8.07;3.92;;;;;;;;;;5023579;28;20029;-77
2023/05/28 02:09:30;;;;;;;7.60;3.95;;;;;;;;;;5024038;28;20048;-76
2023/05/28 02:11:56;;;;;;;10.68;4.20;;;;;;;;;;5016972;28;20108;-76
2023/05/28 02:14:22;;;;;;;9.43;4.22;;;;;;;;;;5023979;28;20084;-76
2023/05/28 02:16:48;;;;;;;8.52;4.03;;;;;;;;;;5024500;28;20052;-76
2023/05/28 02:19:14;;;;;;;7.45;3.42;;;;;;;;;;5028606;28;20049;-76
2023/05/28 02:21:39;;;;;;;8.48;4.05;;;;;;;;;;5026303;28;20658;-77
2023/05/28 02:24:05;;;;;;;8.40;3.90;;;;;;;;;;5011248;28;20029;-78
2023/05/28 02:26:31;;;;;;;8.70;4.13;;;;;;;;;;5009752;28;20028;-79
2023/05/28 02:28:56;;;;;;;9.40;3.97;;;;;;;;;;5044338;28;20068;-78
2023/05/28 02:31:21;;;;;;;9.25;3.92;;;;;;;;;;5025765;28;20582;-76
2023/05/28 02:33:47;;;;;;;7.78;3.88;;;;;;;;;;5044802;28;20152;-76
2023/05/28 02:36:12;;;;;;;9.95;4.00;;;;;;;;;;5025730;28;20029;-76
2023/05/28 02:38:38;;;;;;;8.60;3.65;;;;;;;;;;5026410;28;20051;-77
2023/05/28 02:41:04;;;;;;;9.20;3.72;;;;;;;;;;5043345;28;20071;-77
2023/05/28 02:43:29;;;;;;;5.85;3.40;;;;;;;;;;5044394;28;20492;-77
2023/05/28 02:45:55;;;;;;;8.48;4.25;;;;;;;;;;5043265;28;20068;-76
2023/05/28 02:48:20;;;;;;;7.97;3.80;;;;;;;;;;5026968;28;20037;-76
2023/05/28 02:50:45;;;;;;;7.18;3.78;;;;;;;;;;5025829;28;20112;-76
2023/05/28 02:53:11;;;;;;;8.80;3.90;;;;;;;;;;5026063;28;20377;-77
2023/05/28 02:55:36;;;;;;;7.35;3.58;;;;;;;;;;5044363;28;20033;-77
2023/05/28 02:58:02;;;;;;;9.50;3.80;;;;;;;;;;5003971;28;20048;-76
2023/05/28 03:00:28;;;;;;;7.40;3.55;;;;;;;;;;5025447;28;20032;-77
2023/05/28 03:02:54;;;;;;;7.85;4.00;;;;;;;;;;5010274;28;20068;-78
2023/05/28 03:05:19;;;;;;;9.77;4.45;;;;;;;;;;5025662;28;20048;-77
2023/05/28 03:07:44;;;;;;;8.82;3.63;;;;;;;;;;5025928;28;20033;-77
2023/05/28 03:10:10;;;;;;;10.27;4.40;;;;;;;;;;5026335;28;20863;-76
2023/05/28 03:12:36;;;;;;;7.25;3.65;;;;;;;;;;5026449;28;20041;-76
2023/05/28 03:15:01;;;;;;;8.57;3.88;;;;;;;;;;5009439;28;20158;-76
2023/05/28 03:17:27;;;;;;;6.95;3.45;;;;;;;;;;5026013;28;20041;-76
2023/05/28 03:19:52;;;;;;;7.88;3.55;;;;;;;;;;5025209;28;20053;-77
2023/05/28 03:22:19;;;;;;;8.70;3.95;;;;;;;;;;5043834;28;20037;-76
2023/05/28 03:24:44;;;;;;;7.50;3.88;;;;;;;;;;5026226;28;20431;-77
2023/05/28 03:27:10;;;;;;;10.40;3.85;;;;;;;;;;5025415;28;20033;-77
2023/05/28 03:29:35;;;;;;;7.03;3.45;;;;;;;;;;5018982;28;20412;-77
2023/05/28 03:32:00;;;;;;;7.20;3.72;;;;;;;;;;5025946;28;20037;-77
2023/05/28 03:34:26;;;;;;;7.97;3.70;;;;;;;;;;5021945;28;20041;-77
2023/05/28 03:36:51;;;;;;;6.32;3.65;;;;;;;;;;5043136;28;20033;-77
2023/05/28 03:39:17;;;;;;;9.50;3.78;;;;;;;;;;5025759;28;20036;-76
2023/05/28 03:41:44;;;;;;;8.88;4.13;;;;;;;;;;5029112;28;20040;-77
2023/05/28 03:44:09;;;;;;;9.23;4.07;;;;;;;;;;5030515;28;20476;-77
2023/05/28 03:46:35;;;;;;;6.80;3.50;;;;;;;;;;5029849;28;20037;-78
2023/05/28 03:49:00;;;;;;;9.73;4.10;;;;;;;;;;5029570;28;20044;-77
2023/05/28 03:51:26;;;;;;;7.93;4.22;;;;;;;;;;5029646;28;20036;-78
2023/05/28 03:53:52;;;;;;;7.15;3.47;;;;;;;;;;5047917;28;20522;-77
2023/05/28 03:56:19;;;;;;;7.72;3.70;;;;;;;;;;5029183;28;20087;-77
2023/05/28 03:58:45;;;;;;;13.88;3.92;;;;;;;;;;5048024;28;20041;-77
2023/05/28 04:01:10;;;;;;;7.65;3.60;;;;;;;;;;5012007;28;20033;-76
2023/05/28 04:03:35;;;;;;;10.55;3.95;;;;;;;;;;5013595;28;20037;-77
2023/05/28 04:06:02;;;;;;;7.93;3.33;;;;;;;;;;5028808;28;20041;-77
2023/05/28 04:08:28;;;;;;;6.93;3.92;;;;;;;;;;5029335;28;20542;-77
2023/05/28 04:10:53;;;;;;;8.50;3.95;;;;;;;;;;5046834;28;20033;-77
2023/05/28 04:13:18;;;;;;;7.85;3.65;;;;;;;;;;5047141;28;20052;-76
2023/05/28 04:15:44;;;;;;;6.57;4.00;;;;;;;;;;5028741;28;20373;-76
2023/05/28 04:18:09;;;;;;;8.85;4.22;;;;;;;;;;5021081;28;20146;-77
2023/05/28 04:20:35;;;;;;;11.38;4.55;;;;;;;;;;5016516;28;20076;-76
2023/05/28 04:23:01;;;;;;;9.48;4.10;;;;;;;;;;5029762;28;20083;-77
2023/05/28 04:25:28;;;;;;;9.25;3.90;;;;;;;;;;5046656;28;20075;-76
2023/05/28 04:27:54;;;;;;;7.93;4.03;;;;;;;;;;5028253;28;20029;-78
2023/05/28 04:30:22;;;;;;;8.98;3.88;;;;;;;;;;5028202;28;20526;-77
2023/05/28 04:32:51;;;;;;;10.20;3.85;;;;;;;;;;5029218;28;20563;-78
2023/05/28 04:35:16;;;;;;;8.43;4.35;;;;;;;;;;5028376;28;20060;-76
2023/05/28 04:37:42;;;;;;;10.65;4.53;;;;;;;;;;5046961;28;20511;-76
2023/05/28 04:40:11;;;;;;;7.63;4.10;;;;;;;;;;5028294;28;20550;-76
2023/05/28 04:42:38;;;;;;;8.93;4.22;;;;;;;;;;5012776;28;21017;-79
2023/05/28 04:45:04;;;;;;;10.07;4.32;;;;;;;;;;5029614;28;20029;-76
2023/05/28 04:47:30;;;;;;;7.88;3.78;;;;;;;;;;5045858;28;20039;-76
2023/05/28 04:49:57;;;;;;;7.30;3.80;;;;;;;;;;5028750;28;20029;-76
2023/05/28 04:52:23;;;;;;;9.25;3.90;;;;;;;;;;5019502;28;20029;-77
2023/05/28 04:54:48;;;;;;;9.93;4.20;;;;;;;;;;5027641;28;20377;-76
2023/05/28 04:57:14;;;;;;;10.60;3.80;;;;;;;;;;5028197;28;20120;-76
2023/05/28 04:59:39;;;;;;;6.38;3.40;;;;;;;;;;5011107;28;20506;-77
2023/05/28 05:02:05;;;;;;;9.55;3.45;;;;;;;;;;5028619;28;20373;-76
2023/05/28 05:04:30;;;;;;;6.38;3.13;;;;;;;;;;5027873;28;20041;-76
2023/05/28 05:06:57;;;;;;;9.50;3.90;;;;;;;;;;5028066;28;20795;-76
2023/05/28 05:09:23;;;;;;;8.55;3.80;;;;;;;;;;5028265;28;20037;-77
2023/05/28 05:11:49;;;;;;;7.47;3.65;;;;;;;;;;5026889;28;20041;-76
2023/05/28 05:14:14;;;;;;;7.30;3.70;;;;;;;;;;5028537;28;20035;-76
2023/05/28 05:16:40;;;;;;;8.35;3.42;;;;;;;;;;5028011;28;20040;-77
2023/05/28 05:19:06;;;;;;;6.85;3.47;;;;;;;;;;5045353;28;20115;-76
2023/05/28 05:21:31;;;;;;;6.95;2.90;;;;;;;;;;5027662;28;20044;-78
2023/05/28 05:23:57;;;;;;;7.03;3.13;;;;;;;;;;5027679;28;20033;-78
2023/05/28 05:26:22;;;;;;;6.95;3.20;;;;;;;;;;5027213;28;20558;-76
2023/05/28 05:28:48;;;;;;;7.70;3.40;;;;;;;;;;5045967;28;20033;-78
2023/05/28 05:31:13;;;;;;;7.78;3.15;;;;;;;;;;5027281;28;20490;-78
2023/05/28 05:33:40;;;;;;;9.35;3.70;;;;;;;;;;5010724;28;20530;-78
2023/05/28 05:36:06;;;;;;;6.30;3.50;;;;;;;;;;5027882;28;20542;-78
2023/05/28 05:38:31;;;;;;;8.00;3.38;;;;;;;;;;5027791;28;20044;-78
2023/05/28 05:40:57;;;;;;;8.32;2.90;;;;;;;;;;5025909;28;20112;-78
2023/05/28 05:43:22;;;;;;;7.40;2.92;;;;;;;;;;5045709;28;20119;-78
2023/05/28 05:45:48;;;;;;;7.70;3.25;;;;;;;;;;5009401;28;20057;-78
2023/05/28 05:48:13;;;;;;;6.68;2.90;;;;;;;;;;5044477;28;20184;-78
2023/05/28 05:50:54;;;;;;;8.05;3.60;;;;;;;;;;5026570;28;20822;-78
2023/05/28 05:53:20;;;;;;;7.38;2.78;;;;;;;;;;5044686;28;20029;-77
2023/05/28 05:55:46;;;;;;;7.18;2.92;;;;;;;;;;5044677;28;20041;-77
2023/05/28 05:58:11;;;;;;;8.05;2.38;;;;;;;;;;5045603;28;20072;-77
2023/05/28 06:00:38;;;;;;;7.85;3.00;;;;;;;;;;5019433;28;20033;-77
2023/05/28 06:03:03;;;;;;;5.63;3.10;;;;;;;;;;5045722;28;20127;-77
2023/05/28 06:05:29;;;;;;;6.63;2.85;;;;;;;;;;5025786;28;20037;-77
2023/05/28 06:07:55;;;;;;;6.97;2.85;;;;;;;;;;5011136;28;20041;-78
2023/05/28 06:10:20;;;;;;;7.70;2.90;;;;;;;;;;5025919;28;20037;-78
2023/05/28 06:12:46;;;;;;;6.03;2.90;;;;;;;;;;5027038;28;20044;-78
2023/05/28 06:15:11;;;;;;;7.97;3.17;;;;;;;;;;5009713;28;20419;-77
2023/05/28 06:17:37;;;;;;;6.53;2.63;;;;;;;;;;5009438;28;20068;-77
2023/05/28 06:20:04;;;;;;;7.20;2.65;;;;;;;;;;5010787;28;20098;-77
2023/05/28 06:22:30;;;;;;;5.32;2.50;;;;;;;;;;5022015;28;20496;-77
2023/05/28 06:24:56;;;;;;;6.78;3.08;;;;;;;;;;5026550;28;20029;-77
2023/05/28 06:27:22;;;;;;;5.20;2.40;;;;;;;;;;5025824;28;20871;-78
2023/05/28 06:29:47;;;;;;;6.57;2.20;;;;;;;;;;5015028;28;20053;-77
2023/05/28 06:32:13;;;;;;;5.43;2.35;;;;;;;;;;5011171;28;20075;-77
2023/05/28 06:34:39;;;;;;;7.80;2.33;;;;;;;;;;5026737;28;20044;-77
2023/05/28 06:37:04;;;;;;;5.25;2.40;;;;;;;;;;5027113;28;20056;-77
2023/05/28 06:39:30;;;;;;;5.88;2.60;;;;;;;;;;5044384;28;20499;-77
2023/05/28 06:41:55;;;;;;;6.22;2.40;;;;;;;;;;5024807;28;20455;-77
2023/05/28 06:44:21;;;;;;;6.93;2.17;;;;;;;;;;5044061;28;20044;-77
2023/05/28 06:46:46;;;;;;;6.72;2.22;;;;;;;;;;5043042;28;20033;-77
2023/05/28 06:49:11;;;;;;;6.63;2.20;;;;;;;;;;5025942;28;20060;-77
2023/05/28 06:51:37;;;;;;;5.25;2.15;;;;;;;;;;5009986;28;20033;-77
2023/05/28 06:54:02;;;;;;;4.80;1.95;;;;;;;;;;5044250;28;20052;-77
2023/05/28 06:56:28;;;;;;;5.10;2.00;;;;;;;;;;5043961;28;20037;-77
2023/05/28 06:58:54;;;;;;;6.07;2.15;;;;;;;;;;5044117;28;20029;-77
2023/05/28 07:01:20;;;;;;;4.82;2.00;;;;;;;;;;5043578;28;20052;-76
2023/05/28 07:03:45;;;;;;;4.65;1.90;;;;;;;;;;5043789;28;20127;-76
2023/05/28 07:06:11;;;;;;;3.75;1.80;;;;;;;;;;5024779;28;20029;-76
2023/05/28 07:08:40;;;;;;;3.63;1.67;;;;;;;;;;5044887;28;20041;-76
2023/05/28 07:11:08;;;;;;;7.75;1.73;;;;;;;;;;5043070;28;20151;-76
2023/05/28 07:13:33;;;;;;;4.90;1.70;;;;;;;;;;5044665;28;20139;-78
2023/05/28 07:15:59;;;;;;;4.72;1.30;;;;;;;;;;5048980;28;20059;-76
2023/05/28 07:18:26;;;;;;;4.57;1.67;;;;;;;;;;5032470;28;20036;-75
2023/05/28 07:20:51;;;;;;;6.25;1.90;;;;;;;;;;5027804;28;20083;-76
2023/05/28 07:23:17;;;;;;;3.90;1.70;;;;;;;;;;5030250;28;20133;-76
2023/05/28 07:25:42;;;;;;;6.38;1.75;;;;;;;;;;5027758;28;20025;-77
2023/05/28 07:28:08;;;;;;;5.15;1.67;;;;;;;;;;5030563;28;20034;-77
2023/05/28 07:30:33;;;;;;;5.65;1.70;;;;;;;;;;5030539;28;20045;-77
2023/05/28 07:32:59;;;;;;;4.07;1.27;;;;;;;;;;5030930;28;20042;-78
2023/05/28 07:35:24;;;;;;;3.70;1.50;;;;;;;;;;5029881;28;20037;-76
2023/05/28 07:37:50;;;;;;;3.85;1.50;;;;;;;;;;5020085;28;20037;-76
2023/05/28 07:40:15;;;;;;;3.53;1.30;;;;;;;;;;5029970;28;20088;-76
2023/05/28 07:42:41;;;;;;;3.15;1.55;;;;;;;;;;5028347;28;20048;-77
2023/05/28 07:45:07;;;;;;;4.65;1.40;;;;;;;;;;5029627;28;20037;-77
2023/05/28 07:47:32;;;;;;;6.00;1.50;;;;;;;;;;5028749;28;20039;-77
2023/05/28 07:49:58;;;;;;;3.95;1.48;;;;;;;;;;5013102;28;20408;-77
2023/05/28 07:52:23;;;;;;;3.58;1.38;;;;;;;;;;5010447;28;20037;-77
2023/05/28 07:54:49;;;;;;;5.18;1.40;;;;;;;;;;5030745;28;20051;-78
2023/05/28 07:57:14;;;;;;;4.32;1.60;;;;;;;;;;5027948;28;20030;-77
2023/05/28 07:59:40;;;;;;;4.40;1.40;;;;;;;;;;5028370;28;20060;-77
2023/05/28 08:02:05;;;;;;;5.43;1.92;;;;;;;;;;5021511;28;20045;-76
2023/05/28 08:04:31;;;;;;;4.32;1.52;;;;;;;;;;5028593;28;20040;-77
2023/05/28 08:06:56;;;;;;;5.60;1.67;;;;;;;;;;5027391;28;20068;-74
2023/05/28 08:09:23;;;;;;;3.97;1.17;;;;;;;;;;5012286;28;20033;-76
2023/05/28 08:11:49;;;;;;;5.10;1.70;;;;;;;;;;5028557;28;20057;-79
2023/05/28 08:14:14;;;;;;;4.35;1.42;;;;;;;;;;5028366;28;20029;-77
2023/05/28 08:16:40;;;;;;;5.13;1.27;;;;;;;;;;5011787;28;20068;-77
2023/05/28 08:19:05;;;;;;;6.53;1.33;;;;;;;;;;5033883;28;20072;-75
2023/05/28 08:21:31;;;;;;;4.65;1.40;;;;;;;;;;5031723;28;20041;-79
2023/05/28 08:23:56;;;;;;;5.60;1.45;;;;;;;;;;5050380;28;20483;-78
2023/05/28 08:26:22;;;;;;;4.05;1.33;;;;;;;;;;5046938;28;20037;-78
2023/05/28 08:28:47;;;;;;;4.75;1.55;;;;;;;;;;5028702;28;20045;-79
2023/05/28 08:31:13;;;;;;;5.13;1.52;;;;;;;;;;5011370;28;20079;-79
2023/05/28 08:33:38;;;;;;;5.32;1.30;;;;;;;;;;5029525;28;20044;-78
2023/05/28 08:36:04;;;;;;;3.90;1.40;;;;;;;;;;5011754;28;20029;-78
2023/05/28 08:38:29;;;;;;;4.13;1.10;;;;;;;;;;5028521;28;20029;-79
2023/05/28 08:40:55;;;;;;;4.88;1.20;;;;;;;;;;5046036;28;20048;-80
2023/05/28 08:43:22;;;;;;;4.50;1.33;;;;;;;;;;5047107;28;20033;-80
2023/05/28 08:45:49;;;;;;;3.50;1.45;;;;;;;;;;5027854;28;20424;-78
2023/05/28 08:48:14;;;;;;;;;;;;;;;;;;5046664;28;20033;-78
2023/05/28 08:50:41;;;;;;;4.00;1.30;;;;;;;;;;5020647;28;20112;-78
2023/05/28 08:53:07;;;;;;;;;;;;;;;;;;5029562;28;20278;-78
2023/05/28 08:55:34;;;;;;;4.95;1.58;;;;;;;;;;5021649;28;20372;-78
2023/05/28 08:58:00;;;;;;;3.35;1.08;;;;;;;;;;5027832;28;20108;-78
2023/05/28 09:00:25;;;;;;;3.50;1.10;;;;;;;;;;5010186;28;20144;-78
2023/05/28 09:02:50;;;;;;;3.50;1.13;;;;;;;;;;5012185;28;20143;-78
2023/05/28 09:05:16;;;;;;;3.85;1.60;;;;;;;;;;5022108;28;20032;-77
2023/05/28 09:07:41;;;;;;;4.18;1.10;;;;;;;;;;5028990;28;20029;-78
2023/05/28 09:10:07;;;;;;;3.53;1.45;;;;;;;;;;5028395;28;20091;-77
2023/05/28 09:12:33;;;;;;;4.18;1.75;;;;;;;;;;5044589;28;20040;-78
2023/05/28 09:14:59;;;;;;;3.70;1.30;;;;;;;;;;5028009;28;20083;-78
2023/05/28 09:17:33;;;;;;;4.22;1.20;;;;;;;;;;5027463;28;20368;-78
2023/05/28 09:20:04;;;;;;;3.72;1.13;;;;;;;;;;5010995;28;20045;-78
2023/05/28 09:22:31;;;;;;;4.35;1.20;;;;;;;;;;5028710;28;20458;-79
2023/05/28 09:24:56;;;;;;;3.75;1.25;;;;;;;;;;5011644;28;20124;-78
2023/05/28 09:27:23;;;;;;;3.72;1.25;;;;;;;;;;5027008;28;20480;-78
2023/05/28 09:29:49;;;;;;;2.92;1.10;;;;;;;;;;5045002;28;20029;-78
2023/05/28 09:32:21;;;;;;;3.40;1.30;;;;;;;;;;5027565;28;20033;-78
2023/05/28 09:34:49;;;;;;;3.67;0.95;;;;;;;;;;5010885;28;20064;-78
2023/05/28 09:37:16;;;;;;;2.65;1.15;;;;;;;;;;5026480;28;20191;-78
2023/05/28 09:39:42;;;;;;;;;;;;;;;;;;5011462;28;20729;-78
2023/05/28 09:42:10;;;;;;;4.50;1.07;;;;;;;;;;5011588;28;19917;-78
2023/05/28 09:44:37;;;;;;;3.03;1.30;;;;;;;;;;5027871;28;20045;-78
2023/05/28 09:47:15;;;;;;;4.28;1.30;;;;;;;;;;5026163;28;20033;-78
2023/05/28 09:49:45;;;;;;;3.50;1.20;;;;;;;;;;5044861;28;20037;-78
2023/05/28 09:52:17;;;;;;;5.47;1.40;;;;;;;;;;5026283;28;20167;-78
2023/05/28 09:54:45;;;;;;;3.40;1.33;;;;;;;;;;5044759;28;20037;-78
2023/05/28 09:57:11;;;;;;;2.85;0.98;;;;;;;;;;5042567;28;20460;-78
2023/05/28 09:59:38;;;;;;;4.87;1.47;;;;;;;;;;5027375;28;20033;-78
2023/05/28 10:02:25;;;;;;;5.10;1.30;;;;;;;;;;5010580;28;20033;-77
2023/05/28 10:04:56;;;;;;;2.90;1.15;;;;;;;;;;5024674;28;20580;-77
2023/05/28 10:07:25;;;;;;;4.45;1.20;;;;;;;;;;5026387;28;20028;-78
2023/05/28 10:09:51;;;;;;;3.13;1.20;;;;;;;;;;5010121;28;20116;-78
2023/05/28 10:12:23;;;;;;;3.38;1.35;;;;;;;;;;5026818;28;20053;-77
2023/05/28 10:14:49;;;;;;;2.58;1.00;;;;;;;;;;5009155;28;20448;-78
2023/05/28 10:17:14;;;;;;;2.60;0.97;;;;;;;;;;5043906;28;20029;-78
2023/05/28 10:19:40;;;;;;;3.47;1.27;;;;;;;;;;5018314;28;20131;-78
2023/05/28 10:22:06;;;;;;;4.80;1.40;;;;;;;;;;5026140;28;20508;-78
2023/05/28 10:24:32;;;;;;;2.97;1.10;;;;;;;;;;5025525;28;20060;-78
2023/05/28 10:26:58;;;;;;;3.93;1.10;;;;;;;;;;5020602;28;20040;-77
2023/05/28 10:29:23;;;;;;;2.90;1.20;;;;;;;;;;5007724;28;20385;-77
2023/05/28 10:32:02;;;;;;;4.60;1.33;;;;;;;;;;5024845;28;20033;-77
2023/05/28 10:34:31;;;;;;;3.55;1.13;;;;;;;;;;5008083;28;20047;-78
2023/05/28 10:37:01;;;;;;;3.95;1.23;;;;;;;;;;5043559;28;20040;-78
2023/05/28 10:39:26;;;;;;;2.92;1.08;;;;;;;;;;5025770;28;20036;-77
2023/05/28 10:41:54;;;;;;;3.50;1.13;;;;;;;;;;5017173;28;20107;-78
2023/05/28 10:44:20;;;;;;;3.22;1.38;;;;;;;;;;5026511;28;20602;-78
2023/05/28 10:46:55;;;;;;;3.10;1.13;;;;;;;;;;5009607;28;20045;-78
2023/05/28 10:49:20;;;;;;;3.72;1.20;;;;;;;;;;5030268;28;20041;-78
2023/05/28 10:51:56;;;;;;;2.80;1.03;;;;;;;;;;5025566;28;20040;-77
2023/05/28 10:54:24;;;;;;;2.92;1.20;;;;;;;;;;5025011;28;20642;-77
2023/05/28 10:57:09;;;;;;;6.20;1.13;;;;;;;;;;5042999;28;20037;-78
2023/05/28 10:59:56;;;;;;;3.80;1.17;;;;;;;;;;5007268;28;20508;-78
2023/05/28 11:02:26;;;;;;;4.15;1.10;;;;;;;;;;5013789;28;20029;-78
2023/05/28 11:04:59;;;;;;;3.28;1.45;;;;;;;;;;5025591;28;20080;-78
2023/05/28 11:07:38;;;;;;;3.35;1.40;;;;;;;;;;5000982;28;20110;-78
2023/05/28 11:10:05;;;;;;;4.82;1.20;;;;;;;;;;5002899;28;20053;-78
2023/05/28 11:12:36;;;;;;;4.32;1.30;;;;;;;;;;5006393;28;20028;-78
2023/05/28 11:15:02;;;;;;;3.47;1.05;;;;;;;;;;5008387;28;20052;-78
2023/05/28 11:17:28;;;;;;;;;;;;;;;;;;5024780;28;20099;-78
2023/05/28 11:19:54;;;;;;;4.33;1.30;;;;;;;;;;5005780;28;19924;-78
2023/05/28 11:22:20;;;;;;;2.72;1.10;;;;;;;;;;5007939;28;20060;-78
2023/05/28 11:25:05;;;;;;;3.08;1.08;;;;;;;;;;5018649;28;20029;-78
2023/05/28 11:27:33;;;;;;;3.28;1.13;;;;;;;;;;5024348;28;20123;-78
2023/05/28 11:29:59;;;;;;;3.50;1.10;;;;;;;;;;5024482;28;20072;-79
2023/05/28 11:32:27;;;;;;;;;;;;;;;;;;5008309;28;20544;-78
2023/05/28 11:34:55;;;;;;;2.78;1.10;;;;;;;;;;5007328;28;19982;-78
2023/05/28 11:37:25;;;;;;;3.60;1.23;;;;;;;;;;5022667;28;20029;-78
2023/05/28 11:39:52;;;;;;;4.07;1.35;;;;;;;;;;5001198;28;20064;-78
2023/05/28 11:42:21;;;;;;;;;;;;;;;;;;5042234;28;20091;-77
2023/05/28 11:44:47;;;;;;;5.50;1.23;;;;;;;;;;5007595;28;20003;-78
2023/05/28 11:47:13;;;;;;;3.30;1.30;;;;;;;;;;5009325;28;20116;-78
2023/05/28 11:49:39;;;;;;;3.35;1.10;;;;;;;;;;5025149;28;20057;-78
2023/05/28 11:52:04;;;;;;;2.47;1.02;;;;;;;;;;5042226;28;20452;-77
2023/05/28 11:54:30;;;;;;;2.60;1.10;;;;;;;;;;5008662;28;20033;-77
2023/05/28 11:56:55;;;;;;;3.43;1.27;;;;;;;;;;5041723;28;20452;-77
2023/05/28 11:59:25;;;;;;;3.53;1.70;;;;;;;;;;5042382;28;20392;-78
2023/05/28 12:01:52;;;;;;;3.92;1.25;;;;;;;;;;5027439;28;20036;-77
2023/05/28 12:04:24;;;;;;;4.00;1.55;;;;;;;;;;5028247;28;20124;-77
2023/05/28 12:06:54;;;;;;;4.00;1.70;;;;;;;;;;5011118;28;20045;-77
2023/05/28 12:09:19;;;;;;;3.85;1.40;;;;;;;;;;5012059;28;20037;-77
2023/05/28 12:12:02;;;;;;;3.17;1.35;;;;;;;;;;5027704;28;20055;-77
2023/05/28 12:14:30;;;;;;;3.33;1.42;;;;;;;;;;5020543;28;20452;-77
2023/05/28 12:17:04;;;;;;;3.55;1.48;;;;;;;;;;5011246;28;20116;-77
2023/05/28 12:19:33;;;;;;;3.80;1.60;;;;;;;;;;5027876;28;20504;-77
2023/05/28 12:22:01;;;;;;;3.90;1.23;;;;;;;;;;5009855;28;20052;-78
2023/05/28 12:24:27;;;;;;;3.47;0.90;;;;;;;;;;5045557;28;20044;-78
2023/05/28 12:26:53;;;;;;;4.47;1.58;;;;;;;;;;5011164;28;20037;-77
2023/05/28 12:29:18;;;;;;;3.05;1.30;;;;;;;;;;5045686;28;20404;-77
2023/05/28 12:31:43;;;;;;;5.40;1.40;;;;;;;;;;5009027;28;20038;-79
2023/05/28 12:34:09;;;;;;;3.10;1.33;;;;;;;;;;5026974;28;20037;-79
2023/05/28 12:36:35;;;;;;;3.70;1.40;;;;;;;;;;5010048;28;20495;-79
2023/05/28 12:39:01;;;;;;;4.85;1.60;;;;;;;;;;5024129;28;20045;-78
2023/05/28 12:41:27;;;;;;;8.73;2.53;;;;;;;;;;5010689;28;20061;-76
2023/05/28 12:43:52;;;;;;;3.80;1.50;;;;;;;;;;5046246;28;20120;-77
2023/05/28 12:46:18;;;;;;;4.88;1.60;;;;;;;;;;5027491;28;20033;-77
2023/05/28 12:48:43;;;;;;;5.53;1.80;;;;;;;;;;5027860;28;20033;-77
2023/05/28 12:51:09;;;;;;;3.75;1.48;;;;;;;;;;5027330;28;20384;-77
2023/05/28 12:53:35;;;;;;;4.20;1.63;;;;;;;;;;5045901;28;20437;-77
2023/05/28 12:56:00;;;;;;;4.47;1.77;;;;;;;;;;5010750;28;20037;-79
2023/05/28 12:58:27;;;;;;;4.38;1.40;;;;;;;;;;5029039;28;20116;-79
2023/05/28 13:00:52;;;;;;;5.40;1.58;;;;;;;;;;5044853;28;20033;-79
2023/05/28 13:03:18;;;;;;;3.97;1.40;;;;;;;;;;5028279;28;20278;-78
2023/05/28 13:05:43;;;;;;;4.28;1.40;;;;;;;;;;5003157;28;20033;-79
2023/05/28 13:08:09;;;;;;;3.95;1.48;;;;;;;;;;5011260;28;20044;-78
2023/05/28 13:10:34;;;;;;;3.08;1.20;;;;;;;;;;5027075;28;20041;-79
2023/05/28 13:13:00;;;;;;;2.95;1.30;;;;;;;;;;5028021;28;20025;-78
2023/05/28 13:15:25;;;;;;;3.70;1.42;;;;;;;;;;5026853;28;20112;-78
2023/05/28 13:17:50;;;;;;;4.78;1.70;;;;;;;;;;5046209;28;20037;-78
2023/05/28 13:20:16;;;;;;;4.90;1.85;;;;;;;;;;5009840;28;20063;-79
2023/05/28 13:22:42;;;;;;;4.82;1.38;;;;;;;;;;5027920;28;20033;-79
2023/05/28 13:25:08;;;;;;;3.92;1.50;;;;;;;;;;5028410;28;20037;-79
2023/05/28 13:27:33;;;;;;;3.58;1.30;;;;;;;;;;5027778;28;20586;-79
2023/05/28 13:29:59;;;;;;;4.15;1.50;;;;;;;;;;5027941;28;20120;-79
2023/05/28 13:32:25;;;;;;;5.13;1.75;;;;;;;;;;5026910;28;20040;-79
2023/05/28 13:34:51;;;;;;;3.60;1.40;;;;;;;;;;5026938;28;20472;-79
2023/05/28 13:37:16;;;;;;;4.05;1.60;;;;;;;;;;5022603;28;20111;-79
2023/05/28 13:39:42;;;;;;;4.63;1.20;;;;;;;;;;5025989;28;20041;-79
2023/05/28 13:42:07;;;;;;;3.07;1.30;;;;;;;;;;5027892;28;20443;-79
2023/05/28 13:44:33;;;;;;;4.17;1.23;;;;;;;;;;5011673;28;20064;-79
2023/05/28 13:46:59;;;;;;;3.03;1.30;;;;;;;;;;5027502;28;20103;-79
2023/05/28 13:49:25;;;;;;;3.67;1.20;;;;;;;;;;5027731;28;20120;-79
2023/05/28 13:51:51;;;;;;;2.53;1.10;;;;;;;;;;5027488;28;20052;-79
2023/05/28 13:54:16;;;;;;;3.83;1.20;;;;;;;;;;5027319;28;20033;-78
2023/05/28 13:56:42;;;;;;;2.60;1.20;;;;;;;;;;5045027;28;20330;-78
2023/05/28 13:59:08;;;;;;;4.10;1.48;;;;;;;;;;5027960;28;20028;-78
2023/05/28 14:01:34;;;;;;;3.00;1.30;;;;;;;;;;5044769;28;20091;-78
2023/05/28 14:04:00;;;;;;;2.90;1.30;;;;;;;;;;5026747;28;20082;-78
2023/05/28 14:06:25;;;;;;;2.87;1.23;;;;;;;;;;5044243;28;20422;-78
2023/05/28 14:08:51;;;;;;;3.17;1.00;;;;;;;;;;5027596;28;20036;-78
2023/05/28 14:11:17;;;;;;;3.50;1.50;;;;;;;;;;5044568;28;20132;-78
2023/05/28 14:13:43;;;;;;;5.03;1.88;;;;;;;;;;5044867;28;20040;-78
2023/05/28 14:16:08;;;;;;;3.22;1.40;;;;;;;;;;5024961;28;20447;-79
2023/05/28 14:18:34;;;;;;;4.40;1.40;;;;;;;;;;5027145;28;20449;-78
2023/05/28 14:20:59;;;;;;;3.72;1.50;;;;;;;;;;5043683;28;20445;-79
2023/05/28 14:23:25;;;;;;;3.90;1.50;;;;;;;;;;5027373;28;20068;-78
2023/05/28 14:25:50;;;;;;;7.20;1.40;;;;;;;;;;5025528;28;20402;-79
2023/05/28 14:28:16;;;;;;;3.95;1.50;;;;;;;;;;5010323;28;20067;-78
2023/05/28 14:30:41;;;;;;;2.78;1.17;;;;;;;;;;5009951;28;20307;-78
2023/05/28 14:33:08;;;;;;;5.03;1.60;;;;;;;;;;5045327;28;20044;-78
2023/05/28 14:35:33;;;;;;;2.95;1.55;;;;;;;;;;5005222;28;20496;-78
2023/05/28 14:37:59;;;;;;;6.03;1.73;;;;;;;;;;5010570;28;20041;-78
2023/05/28 14:40:24;;;;;;;3.30;1.35;;;;;;;;;;5024755;28;20494;-79
2023/05/28 14:42:49;;;;;;;5.43;1.55;;;;;;;;;;5025909;28;20045;-78
2023/05/28 14:45:15;;;;;;;3.47;1.30;;;;;;;;;;5025749;28;20087;-78